KCDR/CDR METAR and TAF weather

Enter ICAO airport designator
Station Type Date Time Source
KCDR METAR 2022/11/27 07:53 UTC NOAA

KCDR 270753Z AUTO 23004KT 10SM BKN050 M02/M04 A3001 RMK AO2 SLP177 T10171044


Station Type Date Time Source
KCDR Decoded METAR 2022/11/27 07:53 UTC NOAA

CHADRON MUNICIPAL AIRPORT, NE, United States (KCDR) 42-50N 103-06W 1010M
Nov 27, 2022 - 02:53 AM EST / 2022.11.27 0753 UTC
Wind: from the SW (230 degrees) at 5 MPH (4 KT):0
Visibility: 10 mile(s):0
Sky conditions: mostly cloudy
Temperature: 28.9 F (-1.7 C)
Windchill: 23 F (-5 C):1
Dew Point: 24.1 F (-4.4 C)
Relative Humidity: 81%
Pressure (altimeter): 30.01 in. Hg (1016 hPa)
ob: KCDR 270753Z AUTO 23004KT 10SM BKN050 M02/M04 A3001 RMK AO2 SLP177 T10171044
cycle: 8

Station Type Date Time Source
KCDR TAF 2022/11/27 06:27 UTC NOAA

TAF KCDR 270524Z 2706/2806 VRB05KT P6SM FEW030 BKN040 OVC050
FM271500 22010KT P6SM FEW200
FM272000 22015G25KT P6SM FEW200
FM280000 23010KT P6SM OVC200
FM280500 25016G28KT P6SM FEW200

Example: see airport list